createdAt,value
2019-04-06T00:00:25.332Z,48.73
2019-04-06T00:02:55.583Z,45.40
2019-04-06T00:05:25.700Z,48.58
2019-04-06T00:07:55.881Z,48.92
2019-04-06T00:10:26.040Z,47.83
2019-04-06T00:12:57.255Z,45.52
2019-04-06T00:15:27.398Z,50.60
2019-04-06T00:17:57.590Z,50.85
2019-04-06T00:20:27.723Z,48.02
2019-04-06T00:22:57.937Z,51.48
2019-04-06T00:25:28.087Z,51.58
2019-04-06T00:27:58.449Z,47.70
2019-04-06T00:30:31.187Z,51.95
2019-04-06T00:33:07.837Z,53.92
2019-04-06T00:35:38.077Z,52.45
2019-04-06T00:38:08.248Z,53.98
2019-04-06T00:40:38.495Z,53.58
2019-04-06T00:43:08.892Z,50.10
2019-04-06T00:45:39.217Z,51.85
2019-04-06T00:48:09.478Z,48.87
2019-04-06T00:50:39.650Z,51.23
2019-04-06T00:53:09.812Z,53.45
2019-04-06T00:55:39.989Z,52.15
2019-04-06T00:58:10.260Z,47.75
2019-04-06T01:00:40.486Z,52.30
2019-04-06T01:03:10.764Z,51.48
2019-04-06T01:05:40.903Z,53.15
2019-04-06T01:08:11.129Z,52.62
2019-04-06T01:10:41.748Z,53.02
2019-04-06T01:13:12.900Z,51.18
2019-04-06T01:15:43.171Z,53.73
2019-04-06T01:18:13.232Z,51.88
2019-04-06T01:20:43.367Z,53.15
2019-04-06T01:23:13.518Z,52.27
2019-04-06T01:25:43.705Z,49.23
2019-04-06T01:28:13.909Z,53.75
2019-04-06T01:30:44.061Z,51.92
2019-04-06T01:33:14.237Z,51.15
2019-04-06T01:35:44.405Z,53.35
2019-04-06T01:38:16.695Z,49.75
2019-04-06T01:40:46.948Z,55.08
2019-04-06T01:43:17.165Z,52.03
2019-04-06T01:45:47.413Z,52.50
2019-04-06T01:48:17.554Z,54.45
2019-04-06T01:50:47.774Z,51.98
2019-04-06T01:53:17.919Z,55.33
2019-04-06T01:55:49.181Z,50.17
2019-04-06T01:58:19.292Z,49.53
2019-04-06T02:01:02.970Z,50.83
2019-04-06T02:03:33.107Z,51.37
2019-04-06T02:06:03.861Z,50.78
2019-04-06T02:08:34.012Z,52.08
2019-04-06T02:11:04.532Z,51.55
2019-04-06T02:13:34.688Z,48.70
2019-04-06T02:16:06.227Z,50.67
2019-04-06T02:18:37.251Z,51.10
2019-04-06T02:21:07.413Z,52.65
2019-04-06T02:23:37.665Z,54.05
2019-04-06T02:26:07.788Z,52.95
2019-04-06T02:28:37.932Z,47.23
2019-04-06T02:31:27.062Z,50.20
2019-04-06T02:34:19.086Z,48.70
2019-04-06T02:37:14.211Z,51.85
2019-04-06T02:39:55.113Z,50.25
2019-04-06T02:42:40.617Z,53.60
2019-04-06T02:45:11.063Z,49.77
2019-04-06T02:47:41.201Z,47.98
2019-04-06T02:50:11.383Z,48.70
2019-04-06T02:52:41.560Z,52.13
2019-04-06T02:55:14.442Z,44.63
2019-04-06T02:57:44.593Z,47.85
2019-04-06T03:00:14.925Z,47.43
2019-04-06T03:02:45.060Z,46.95
2019-04-06T03:05:15.216Z,46.98
2019-04-06T03:07:45.386Z,48.52
2019-04-06T03:10:15.608Z,49.23
2019-04-06T03:12:45.778Z,48.75
2019-04-06T03:15:17.611Z,46.13
2019-04-06T03:17:47.781Z,49.67
2019-04-06T03:20:17.945Z,49.75
2019-04-06T03:22:48.124Z,47.43
2019-04-06T03:25:18.285Z,49.88
2019-04-06T03:27:48.536Z,48.20
2019-04-06T03:30:18.617Z,47.15
2019-04-06T03:32:49.820Z,45.58
2019-04-06T03:35:19.981Z,47.00
2019-04-06T03:37:50.179Z,46.10
2019-04-06T03:40:20.326Z,46.55
2019-04-06T03:42:50.524Z,44.83
2019-04-06T03:45:20.672Z,46.70
2019-04-06T03:47:50.882Z,49.48
2019-04-06T03:50:21.206Z,46.63
2019-04-06T03:52:51.625Z,48.10
2019-04-06T03:55:21.734Z,47.33
2019-04-06T03:57:51.867Z,48.52
2019-04-06T04:00:21.895Z,48.95
2019-04-06T04:02:52.263Z,48.23
2019-04-06T04:05:22.385Z,46.55
2019-04-06T04:07:55.748Z,45.95
2019-04-06T04:10:34.299Z,47.65
2019-04-06T04:13:05.218Z,46.37
2019-04-06T04:15:35.436Z,50.95
2019-04-06T04:18:06.035Z,49.75
2019-04-06T04:20:37.750Z,48.60
2019-04-06T04:23:08.136Z,49.20
2019-04-06T04:25:38.383Z,46.90
2019-04-06T04:28:08.553Z,46.77
2019-04-06T04:30:38.920Z,48.23
2019-04-06T04:33:09.064Z,45.43
2019-04-06T04:35:39.240Z,45.98
2019-04-06T04:38:09.643Z,48.75
2019-04-06T04:40:40.734Z,44.60
2019-04-06T04:43:11.135Z,45.52
2019-04-06T04:45:41.211Z,45.03
2019-04-06T04:48:11.489Z,47.05
2019-04-06T04:50:41.825Z,43.58
2019-04-06T04:53:12.085Z,44.35
2019-04-06T04:55:42.362Z,47.08
2019-04-06T04:58:12.564Z,44.08
2019-04-06T05:00:42.731Z,46.18
2019-04-06T05:03:12.884Z,41.60
2019-04-06T05:05:43.109Z,43.35
2019-04-06T05:08:13.343Z,42.17
2019-04-06T05:10:43.682Z,42.15
2019-04-06T05:13:13.934Z,41.83
2019-04-06T05:16:21.832Z,42.95
2019-04-06T05:18:52.082Z,44.93
2019-04-06T05:21:24.989Z,40.65
2019-04-06T05:23:55.166Z,41.28
2019-04-06T05:26:25.440Z,43.23
2019-04-06T05:28:55.587Z,45.52
2019-04-06T05:31:25.921Z,46.58
2019-04-06T05:33:56.105Z,42.95
2019-04-06T05:36:26.292Z,43.10
2019-04-06T05:38:56.463Z,43.90
2019-04-06T05:41:26.697Z,42.73
2019-04-06T05:43:56.793Z,41.08
2019-04-06T05:46:29.853Z,42.35
2019-04-06T05:48:59.954Z,46.13
2019-04-06T05:51:36.211Z,44.83
2019-04-06T05:54:06.448Z,39.45
2019-04-06T05:56:36.606Z,43.73
2019-04-06T05:59:10.057Z,44.83
2019-04-06T06:01:40.523Z,43.40
2019-04-06T06:04:10.796Z,41.25
2019-04-06T06:06:41.628Z,41.85
2019-04-06T06:09:13.622Z,42.70
2019-04-06T06:11:43.896Z,42.58
2019-04-06T06:14:14.369Z,43.95
2019-04-06T06:16:44.542Z,42.03
2019-04-06T06:19:15.139Z,41.80
2019-04-06T06:21:45.307Z,41.50
2019-04-06T06:24:15.506Z,42.55
2019-04-06T06:26:45.683Z,43.55
2019-04-06T06:29:15.822Z,41.68
2019-04-06T06:31:45.986Z,41.95
2019-04-06T06:34:16.090Z,41.33
2019-04-06T06:36:46.263Z,44.85
2019-04-06T06:39:16.533Z,44.18
2019-04-06T06:41:47.119Z,42.60
2019-04-06T06:44:19.224Z,43.30
2019-04-06T06:46:49.476Z,44.88
2019-04-06T06:49:19.647Z,44.08
2019-04-06T06:51:50.018Z,45.67
2019-04-06T06:54:20.162Z,45.23
2019-04-06T06:56:53.454Z,43.05
2019-04-06T06:59:23.643Z,42.88
2019-04-06T07:01:53.877Z,43.80
2019-04-06T07:04:24.058Z,45.83
2019-04-06T07:06:54.240Z,43.80
2019-04-06T07:09:24.384Z,42.43
2019-04-06T07:11:54.565Z,43.15
2019-04-06T07:14:24.693Z,45.70
2019-04-06T07:16:54.917Z,44.42
2019-04-06T07:19:25.104Z,41.63
2019-04-06T07:21:55.491Z,42.65
2019-04-06T07:24:25.759Z,40.80
2019-04-06T07:26:55.977Z,41.80
2019-04-06T07:29:26.126Z,43.70
2019-04-06T07:31:56.354Z,40.60
2019-04-06T07:34:26.525Z,39.90
2019-04-06T07:36:56.672Z,40.03
2019-04-06T07:39:26.902Z,42.35
2019-04-06T07:41:57.107Z,38.65
2019-04-06T07:44:27.342Z,41.28
2019-04-06T07:46:57.533Z,37.50
2019-04-06T07:49:31.293Z,40.03
2019-04-06T07:52:01.536Z,38.58
2019-04-06T07:54:31.705Z,41.13
2019-04-06T07:57:02.030Z,40.15
2019-04-06T07:59:32.197Z,40.05
2019-04-06T08:02:02.388Z,36.90
2019-04-06T08:04:32.720Z,41.45
2019-04-06T08:07:02.957Z,41.53
2019-04-06T08:09:33.155Z,39.83
2019-04-06T08:12:08.775Z,40.55
2019-04-06T08:14:39.261Z,38.75
2019-04-06T08:17:09.379Z,38.88
2019-04-06T08:19:39.571Z,38.25
2019-04-06T08:22:23.243Z,41.00
2019-04-06T08:24:53.563Z,37.85
2019-04-06T08:27:23.852Z,36.40
2019-04-06T08:29:54.020Z,36.60
2019-04-06T08:32:24.525Z,40.73
2019-04-06T08:34:54.767Z,37.45
2019-04-06T08:37:28.341Z,41.15
2019-04-06T08:39:58.702Z,40.85
2019-04-06T08:42:28.885Z,41.40
2019-04-06T08:44:59.217Z,42.58
2019-04-06T08:47:29.305Z,45.95
2019-04-06T08:49:59.599Z,45.38
2019-04-06T08:52:29.799Z,46.90
2019-04-06T08:55:00.000Z,45.48
2019-04-06T08:57:30.437Z,44.83
2019-04-06T09:00:01.822Z,43.75
2019-04-06T09:02:33.709Z,43.05
2019-04-06T09:05:06.198Z,43.40
2019-04-06T09:07:36.341Z,43.25
2019-04-06T09:10:06.648Z,39.08
2019-04-06T09:12:37.041Z,40.33
2019-04-06T09:15:07.844Z,40.58
2019-04-06T09:17:38.096Z,42.33
2019-04-06T09:20:08.639Z,42.05
2019-04-06T09:22:40.408Z,40.78
2019-04-06T09:25:10.611Z,40.60
2019-04-06T09:27:40.759Z,41.42
2019-04-06T09:30:10.919Z,39.90
2019-04-06T09:32:41.434Z,42.67
2019-04-06T09:35:13.278Z,41.33
2019-04-06T09:37:43.421Z,44.55
2019-04-06T09:40:13.827Z,40.75
2019-04-06T09:42:44.093Z,42.98
2019-04-06T09:45:32.053Z,39.45
2019-04-06T09:48:11.645Z,41.20
2019-04-06T09:51:13.058Z,40.52
2019-04-06T09:54:06.188Z,41.50
2019-04-06T09:56:54.918Z,43.70
2019-04-06T09:59:37.592Z,41.35
2019-04-06T10:02:29.981Z,41.33
2019-04-06T10:05:19.270Z,41.80
2019-04-06T10:08:12.880Z,38.55
2019-04-06T10:11:00.130Z,37.25
2019-04-06T10:13:58.043Z,35.95
2019-04-06T10:16:45.850Z,35.33
2019-04-06T10:19:43.806Z,34.15
2019-04-06T10:22:31.710Z,39.88
2019-04-06T10:25:35.845Z,36.25
2019-04-06T10:28:34.982Z,32.23
2019-04-06T10:31:29.932Z,35.05
2019-04-06T10:34:25.067Z,31.30
2019-04-06T10:37:18.589Z,34.53
2019-04-06T10:40:05.714Z,29.42
2019-04-06T10:42:53.714Z,31.52
2019-04-06T10:45:54.796Z,34.25
2019-04-06T10:48:33.942Z,32.80
2019-04-06T10:51:25.894Z,32.80
2019-04-06T10:54:14.015Z,32.63
2019-04-06T10:57:02.521Z,32.67
2019-04-06T10:59:59.902Z,34.15
2019-04-06T11:02:37.396Z,34.90
2019-04-06T11:05:38.764Z,35.38
2019-04-06T11:08:18.408Z,32.98
2019-04-06T11:11:20.625Z,35.73
2019-04-06T11:14:09.823Z,37.73
2019-04-06T11:16:59.028Z,33.63
2019-04-06T11:19:38.338Z,33.20
2019-04-06T11:22:30.485Z,33.73
2019-04-06T11:25:12.141Z,37.23
2019-04-06T11:27:52.320Z,36.55
2019-04-06T11:30:40.048Z,39.40
2019-04-06T11:33:41.212Z,38.05
2019-04-06T11:36:22.793Z,33.25
2019-04-06T11:39:18.088Z,28.05
2019-04-06T11:42:07.186Z,32.08
2019-04-06T11:44:56.419Z,29.98
2019-04-06T11:47:48.444Z,27.73
2019-04-06T11:50:38.871Z,27.60
2019-04-06T11:53:43.579Z,25.72
2019-04-06T11:56:33.007Z,24.15
2019-04-06T11:59:31.002Z,24.87
2019-04-06T12:02:39.013Z,24.20
2019-04-06T12:05:17.508Z,24.18
2019-04-06T12:08:11.511Z,25.52
2019-04-06T12:11:01.405Z,21.87
2019-04-06T12:13:55.970Z,22.32
2019-04-06T12:16:35.735Z,22.80
2019-04-06T12:19:31.009Z,20.35
2019-04-06T12:22:32.715Z,22.27
2019-04-06T12:25:11.232Z,23.18
2019-04-06T12:27:56.971Z,21.42
2019-04-06T12:30:50.556Z,24.15
2019-04-06T12:33:33.938Z,23.00
2019-04-06T12:36:26.331Z,26.25
2019-04-06T12:39:14.148Z,19.87
2019-04-06T12:42:02.003Z,26.30
2019-04-06T12:44:51.192Z,25.43
2019-04-06T12:47:43.433Z,26.55
2019-04-06T12:50:41.777Z,26.42
2019-04-06T12:53:37.721Z,24.23
2019-04-06T12:56:32.619Z,25.12
2019-04-06T12:59:31.167Z,25.02
2019-04-06T13:02:20.348Z,24.87
2019-04-06T13:05:13.325Z,22.50
2019-04-06T13:08:08.075Z,23.25
2019-04-06T13:10:47.267Z,20.72
2019-04-06T13:13:42.538Z,18.25
2019-04-06T13:16:30.585Z,17.60
2019-04-06T13:19:25.903Z,19.80
2019-04-06T13:22:27.181Z,20.32
2019-04-06T13:25:07.545Z,17.90
2019-04-06T13:28:09.043Z,17.87
2019-04-06T13:31:04.145Z,16.90
2019-04-06T13:33:53.611Z,17.73
2019-04-06T13:36:42.799Z,16.37
2019-04-06T13:39:37.844Z,16.27
2019-04-06T13:42:42.464Z,18.00
2019-04-06T13:45:26.044Z,20.02
2019-04-06T13:48:13.775Z,15.90
2019-04-06T13:51:18.309Z,16.25
2019-04-06T13:54:06.879Z,13.35
2019-04-06T13:57:00.909Z,13.80
2019-04-06T13:59:48.822Z,15.32
2019-04-06T14:02:29.372Z,14.00
2019-04-06T14:05:18.532Z,15.28
2019-04-06T14:07:55.422Z,13.85
2019-04-06T14:10:35.499Z,15.10
2019-04-06T14:13:27.809Z,14.58
2019-04-06T14:16:32.332Z,14.73
2019-04-06T14:19:19.626Z,13.10
2019-04-06T14:22:17.619Z,12.55
2019-04-06T14:25:01.516Z,12.75
2019-04-06T14:27:53.612Z,12.07
2019-04-06T14:30:51.693Z,11.75
2019-04-06T14:33:39.978Z,13.58
2019-04-06T14:36:21.296Z,9.40
2019-04-06T14:39:08.560Z,9.78
2019-04-06T14:41:50.129Z,11.45
2019-04-06T14:44:40.768Z,10.40
2019-04-06T14:47:36.019Z,9.13
2019-04-06T14:50:21.405Z,7.28
2019-04-06T14:53:17.254Z,7.33
2019-04-06T14:55:52.590Z,8.15
2019-04-06T14:58:38.408Z,8.50
2019-04-06T15:01:18.403Z,7.03
2019-04-06T15:04:07.147Z,6.85
2019-04-06T15:06:54.866Z,6.60
2019-04-06T15:09:46.760Z,6.78
2019-04-06T15:12:24.771Z,8.73
2019-04-06T15:15:14.423Z,8.50
2019-04-06T15:18:02.374Z,6.62
2019-04-06T15:20:52.718Z,7.70
2019-04-06T15:23:32.306Z,7.47
2019-04-06T15:26:18.308Z,5.45
2019-04-06T15:29:05.678Z,7.15
2019-04-06T15:31:53.538Z,7.97
2019-04-06T15:34:36.994Z,8.05
2019-04-06T15:37:19.836Z,7.80
2019-04-06T15:40:15.000Z,7.25
2019-04-06T15:43:02.911Z,7.92
2019-04-06T15:45:55.158Z,7.40
2019-04-06T15:48:43.016Z,6.97
2019-04-06T15:51:30.941Z,6.87
2019-04-06T15:54:22.861Z,6.12
2019-04-06T15:57:02.224Z,7.30
2019-04-06T15:59:57.356Z,7.53
2019-04-06T16:02:33.922Z,6.15
2019-04-06T16:05:26.367Z,6.62
2019-04-06T16:08:14.391Z,6.85
2019-04-06T16:11:06.666Z,6.90
2019-04-06T16:13:52.576Z,6.12
2019-04-06T16:16:42.134Z,7.15
2019-04-06T16:19:31.779Z,7.40
2019-04-06T16:22:26.988Z,7.25
2019-04-06T16:25:22.247Z,6.70
2019-04-06T16:28:07.262Z,9.85
2019-04-06T16:31:02.511Z,8.68
2019-04-06T16:33:48.326Z,7.45
2019-04-06T16:36:49.901Z,7.80
2019-04-06T16:39:54.100Z,7.75
2019-04-06T16:42:40.929Z,7.08
2019-04-06T16:45:23.088Z,8.88
2019-04-06T16:48:12.281Z,8.63
2019-04-06T16:51:00.111Z,7.22
2019-04-06T16:53:52.272Z,9.08
2019-04-06T16:56:45.193Z,8.43
2019-04-06T16:59:33.033Z,9.20
2019-04-06T17:02:24.449Z,7.45
2019-04-06T17:05:11.250Z,8.35
2019-04-06T17:07:49.922Z,9.10
2019-04-06T17:10:45.588Z,9.58
2019-04-06T17:13:38.625Z,8.18
2019-04-06T17:16:18.987Z,8.55
2019-04-06T17:19:07.089Z,8.73
2019-04-06T17:21:55.127Z,9.28
2019-04-06T17:24:42.113Z,8.33
2019-04-06T17:27:37.434Z,8.08
2019-04-06T17:30:23.332Z,7.95
2019-04-06T17:33:05.335Z,8.25
2019-04-06T17:35:53.391Z,8.23
2019-04-06T17:38:45.209Z,9.50
2019-04-06T17:41:52.479Z,8.90
2019-04-06T17:44:47.681Z,7.90
2019-04-06T17:47:49.096Z,8.33
2019-04-06T17:50:27.800Z,8.08
2019-04-06T17:53:29.015Z,7.53
2019-04-06T17:56:36.376Z,7.60
2019-04-06T17:59:24.772Z,7.55
2019-04-06T18:02:23.204Z,6.72
2019-04-06T18:05:24.438Z,7.95
2019-04-06T18:08:06.029Z,8.48
2019-04-06T18:10:47.294Z,8.98
2019-04-06T18:13:39.506Z,9.88
2019-04-06T18:16:09.742Z,8.93
2019-04-06T18:18:41.111Z,10.75
2019-04-06T18:21:11.335Z,9.13
2019-04-06T18:23:41.534Z,9.25
2019-04-06T18:26:11.756Z,11.43
2019-04-06T18:28:42.009Z,10.90
2019-04-06T18:31:43.637Z,11.57
2019-04-06T18:34:14.445Z,11.00
2019-04-06T18:37:00.368Z,12.00
2019-04-06T18:39:31.623Z,11.12
2019-04-06T18:42:01.903Z,10.93
2019-04-06T18:44:32.092Z,13.13
2019-04-06T18:47:02.345Z,11.90
2019-04-06T18:49:33.127Z,13.13
2019-04-06T18:52:06.748Z,11.53
2019-04-06T18:54:43.181Z,13.10
2019-04-06T18:57:16.147Z,13.98
2019-04-06T18:59:47.046Z,13.62
2019-04-06T19:02:18.004Z,12.82
2019-04-06T19:04:48.666Z,13.50
2019-04-06T19:07:19.314Z,12.95
2019-04-06T19:09:50.141Z,12.35
2019-04-06T19:12:21.153Z,13.22
2019-04-06T19:14:53.212Z,13.55
2019-04-06T19:17:23.932Z,14.40
2019-04-06T19:19:54.604Z,13.93
2019-04-06T19:22:25.179Z,15.90
2019-04-06T19:24:56.672Z,14.25
2019-04-06T19:27:27.454Z,14.25
2019-04-06T19:29:58.351Z,14.95
2019-04-06T19:32:29.618Z,14.20
2019-04-06T19:35:01.142Z,14.43
2019-04-06T19:37:35.160Z,16.05
2019-04-06T19:40:07.152Z,16.55
2019-04-06T19:42:38.953Z,15.53
2019-04-06T19:45:10.656Z,13.43
2019-04-06T19:47:41.150Z,14.50
2019-04-06T19:50:13.685Z,14.68
2019-04-06T19:52:44.194Z,16.15
2019-04-06T19:55:16.174Z,15.78
2019-04-06T19:57:50.681Z,15.18
2019-04-06T20:00:22.770Z,14.30
2019-04-06T20:02:53.149Z,15.65
2019-04-06T20:05:23.959Z,14.50
2019-04-06T20:07:58.378Z,14.30
2019-04-06T20:10:33.867Z,14.05
2019-04-06T20:13:04.114Z,13.00
2019-04-06T20:15:34.530Z,14.05
2019-04-06T20:18:04.961Z,15.25
2019-04-06T20:20:35.346Z,12.40
2019-04-06T20:23:06.295Z,14.15
2019-04-06T20:25:37.334Z,13.00
2019-04-06T20:28:07.885Z,13.83
2019-04-06T20:30:38.547Z,14.45
2019-04-06T20:33:09.694Z,14.50
2019-04-06T20:35:40.632Z,12.18
2019-04-06T20:38:11.927Z,13.45
2019-04-06T20:40:45.390Z,12.90
2019-04-06T20:43:16.370Z,12.68
2019-04-06T20:45:48.894Z,12.43
2019-04-06T20:48:19.473Z,12.73
2019-04-06T20:50:50.035Z,12.05
2019-04-06T20:53:20.352Z,12.05
2019-04-06T20:55:50.904Z,13.18
2019-04-06T20:58:21.234Z,11.55
2019-04-06T21:01:03.596Z,11.90
2019-04-06T21:03:36.806Z,12.43
2019-04-06T21:06:07.417Z,12.58
2019-04-06T21:08:37.532Z,11.83
2019-04-06T21:11:08.326Z,11.25
2019-04-06T21:13:39.035Z,11.97
2019-04-06T21:16:09.340Z,11.80
2019-04-06T21:18:40.012Z,11.65
2019-04-06T21:21:10.296Z,12.35
2019-04-06T21:23:40.430Z,11.22
2019-04-06T21:26:10.949Z,11.73
2019-04-06T21:28:41.140Z,11.48
2019-04-06T21:31:12.565Z,10.98
2019-04-06T21:33:45.037Z,10.30
2019-04-06T21:36:15.213Z,12.13
2019-04-06T21:38:45.586Z,10.13
2019-04-06T21:41:16.060Z,10.08
2019-04-06T21:43:46.278Z,10.10
2019-04-06T21:46:16.907Z,10.38
2019-04-06T21:48:47.252Z,10.58
2019-04-06T21:51:18.029Z,10.65
2019-04-06T21:53:48.424Z,10.82
2019-04-06T21:56:19.159Z,10.40
2019-04-06T21:58:49.418Z,10.20
2019-04-06T22:01:20.948Z,11.08
2019-04-06T22:03:52.719Z,11.78
2019-04-06T22:06:25.030Z,10.70
2019-04-06T22:08:55.163Z,11.12
2019-04-06T22:11:25.306Z,10.88
2019-04-06T22:13:55.489Z,10.95
2019-04-06T22:16:25.726Z,11.53
2019-04-06T22:18:56.432Z,11.10
2019-04-06T22:21:27.138Z,10.82
2019-04-06T22:23:57.892Z,11.53
2019-04-06T22:26:28.087Z,11.45
2019-04-06T22:28:58.314Z,10.45
2019-04-06T22:31:29.029Z,10.93
2019-04-06T22:33:59.447Z,10.30
2019-04-06T22:36:29.579Z,11.38
2019-04-06T22:38:59.769Z,10.72
2019-04-06T22:41:29.921Z,10.45
2019-04-06T22:44:00.711Z,11.08
2019-04-06T22:46:31.559Z,11.10
2019-04-06T22:49:01.848Z,10.85
2019-04-06T22:51:32.195Z,11.95
2019-04-06T22:54:02.538Z,11.10
2019-04-06T22:56:32.699Z,10.75
2019-04-06T22:59:04.832Z,11.80
2019-04-06T23:01:37.378Z,11.00
2019-04-06T23:04:47.327Z,12.30
2019-04-06T23:07:09.897Z,12.03
2019-04-06T23:09:40.232Z,11.50
2019-04-06T23:12:10.391Z,10.70
2019-04-06T23:14:40.587Z,10.82
2019-04-06T23:17:11.229Z,11.48
2019-04-06T23:19:41.950Z,10.15
2019-04-06T23:22:12.498Z,11.38
2019-04-06T23:24:43.206Z,11.18
2019-04-06T23:27:13.699Z,10.72
2019-04-06T23:29:44.058Z,11.70
2019-04-06T23:32:14.803Z,12.37
2019-04-06T23:34:45.049Z,11.90
2019-04-06T23:37:16.718Z,11.88
2019-04-06T23:39:46.990Z,12.07
2019-04-06T23:42:17.237Z,12.28
2019-04-06T23:44:47.782Z,12.75
2019-04-06T23:47:18.124Z,12.53
2019-04-06T23:49:48.280Z,11.80
2019-04-06T23:52:18.448Z,11.65
2019-04-06T23:54:48.733Z,12.45
2019-04-06T23:57:18.845Z,13.22
2019-04-06T23:59:49.113Z,12.63
